sensor_id;sensor_type;location;lat;lon;timestamp;temperature;humidity
24800;DHT22;12897;50.812;4.430;2023-07-13T00:01:49;18.00;99.90
24800;DHT22;12897;50.812;4.430;2023-07-13T00:04:20;17.90;99.90
24800;DHT22;12897;50.812;4.430;2023-07-13T00:06:47;17.80;99.90
24800;DHT22;12897;50.812;4.430;2023-07-13T00:09:14;17.90;99.90
24800;DHT22;12897;50.812;4.430;2023-07-13T00:11:42;17.90;99.90
24800;DHT22;12897;50.812;4.430;2023-07-13T00:14:09;17.90;99.90
24800;DHT22;12897;50.812;4.430;2023-07-13T00:16:37;17.90;99.90
24800;DHT22;12897;50.812;4.430;2023-07-13T00:19:04;17.80;99.90
24800;DHT22;12897;50.812;4.430;2023-07-13T00:21:32;17.70;99.90
24800;DHT22;12897;50.812;4.430;2023-07-13T00:23:58;17.70;99.90
24800;DHT22;12897;50.812;4.430;2023-07-13T00:26:27;17.70;99.90
24800;DHT22;12897;50.812;4.430;2023-07-13T00:28:53;17.70;99.90
24800;DHT22;12897;50.812;4.430;2023-07-13T00:31:20;17.70;99.90
24800;DHT22;12897;50.812;4.430;2023-07-13T00:33:47;17.70;99.90
24800;DHT22;12897;50.812;4.430;2023-07-13T00:36:15;17.60;99.90
24800;DHT22;12897;50.812;4.430;2023-07-13T00:41:30;17.60;99.90
24800;DHT22;12897;50.812;4.430;2023-07-13T00:43:57;17.50;99.90
24800;DHT22;12897;50.812;4.430;2023-07-13T00:46:25;17.50;99.90
24800;DHT22;12897;50.812;4.430;2023-07-13T00:48:53;17.50;99.90
24800;DHT22;12897;50.812;4.430;2023-07-13T00:51:22;17.50;99.90
24800;DHT22;12897;50.812;4.430;2023-07-13T00:53:49;17.50;99.90
24800;DHT22;12897;50.812;4.430;2023-07-13T00:56:19;17.40;99.90
24800;DHT22;12897;50.812;4.430;2023-07-13T00:58:45;17.40;99.90
24800;DHT22;12897;50.812;4.430;2023-07-13T01:01:12;17.30;99.90
24800;DHT22;12897;50.812;4.430;2023-07-13T01:03:39;17.30;99.90
24800;DHT22;12897;50.812;4.430;2023-07-13T01:06:07;17.40;99.90
24800;DHT22;12897;50.812;4.430;2023-07-13T01:08:34;17.30;99.90
24800;DHT22;12897;50.812;4.430;2023-07-13T01:11:00;17.20;99.90
24800;DHT22;12897;50.812;4.430;2023-07-13T01:13:27;17.30;99.90
24800;DHT22;12897;50.812;4.430;2023-07-13T01:15:55;17.30;99.90
24800;DHT22;12897;50.812;4.430;2023-07-13T01:18:23;17.20;99.90
24800;DHT22;12897;50.812;4.430;2023-07-13T01:20:55;17.20;99.90
24800;DHT22;12897;50.812;4.430;2023-07-13T01:23:22;17.10;99.90
24800;DHT22;12897;50.812;4.430;2023-07-13T01:25:50;17.20;99.90
24800;DHT22;12897;50.812;4.430;2023-07-13T01:28:16;17.30;99.90
24800;DHT22;12897;50.812;4.430;2023-07-13T01:30:44;17.20;99.90
24800;DHT22;12897;50.812;4.430;2023-07-13T01:33:17;17.20;99.90
24800;DHT22;12897;50.812;4.430;2023-07-13T01:35:40;17.30;99.90
24800;DHT22;12897;50.812;4.430;2023-07-13T01:38:07;17.30;99.90
24800;DHT22;12897;50.812;4.430;2023-07-13T01:40:35;17.10;99.90
24800;DHT22;12897;50.812;4.430;2023-07-13T01:43:02;17.00;99.90
24800;DHT22;12897;50.812;4.430;2023-07-13T01:45:29;17.00;99.90
24800;DHT22;12897;50.812;4.430;2023-07-13T01:47:56;17.00;99.90
24800;DHT22;12897;50.812;4.430;2023-07-13T01:50:24;17.00;99.90
24800;DHT22;12897;50.812;4.430;2023-07-13T01:52:52;17.00;99.90
24800;DHT22;12897;50.812;4.430;2023-07-13T01:55:19;17.00;99.90
24800;DHT22;12897;50.812;4.430;2023-07-13T01:57:46;17.00;99.90
24800;DHT22;12897;50.812;4.430;2023-07-13T02:00:13;17.00;99.90
24800;DHT22;12897;50.812;4.430;2023-07-13T02:02:43;17.00;99.90
24800;DHT22;12897;50.812;4.430;2023-07-13T02:05:11;16.80;99.90
24800;DHT22;12897;50.812;4.430;2023-07-13T02:07:38;16.80;99.90
24800;DHT22;12897;50.812;4.430;2023-07-13T02:10:06;16.90;99.90
24800;DHT22;12897;50.812;4.430;2023-07-13T02:12:33;16.80;99.90
24800;DHT22;12897;50.812;4.430;2023-07-13T02:15:00;16.90;99.90
24800;DHT22;12897;50.812;4.430;2023-07-13T02:17:27;16.90;99.90
24800;DHT22;12897;50.812;4.430;2023-07-13T02:19:54;16.90;99.90
24800;DHT22;12897;50.812;4.430;2023-07-13T02:22:21;16.80;99.90
24800;DHT22;12897;50.812;4.430;2023-07-13T02:24:49;16.70;99.90
24800;DHT22;12897;50.812;4.430;2023-07-13T02:27:16;16.80;99.90
24800;DHT22;12897;50.812;4.430;2023-07-13T02:29:43;16.80;99.90
24800;DHT22;12897;50.812;4.430;2023-07-13T02:32:10;16.80;99.90
24800;DHT22;12897;50.812;4.430;2023-07-13T02:34:36;16.70;99.90
24800;DHT22;12897;50.812;4.430;2023-07-13T02:37:03;16.70;99.90
24800;DHT22;12897;50.812;4.430;2023-07-13T02:39:30;16.70;99.90
24800;DHT22;12897;50.812;4.430;2023-07-13T02:41:59;16.70;99.90
24800;DHT22;12897;50.812;4.430;2023-07-13T02:44:26;16.70;99.90
24800;DHT22;12897;50.812;4.430;2023-07-13T02:46:53;16.70;99.90
24800;DHT22;12897;50.812;4.430;2023-07-13T02:49:23;16.70;99.90
24800;DHT22;12897;50.812;4.430;2023-07-13T02:51:50;16.70;99.90
24800;DHT22;12897;50.812;4.430;2023-07-13T02:54:17;16.60;99.90
24800;DHT22;12897;50.812;4.430;2023-07-13T02:56:46;16.70;99.90
24800;DHT22;12897;50.812;4.430;2023-07-13T02:59:13;16.60;99.90
24800;DHT22;12897;50.812;4.430;2023-07-13T03:01:40;16.50;99.90
24800;DHT22;12897;50.812;4.430;2023-07-13T03:04:07;16.40;99.90
24800;DHT22;12897;50.812;4.430;2023-07-13T03:06:34;16.50;99.90
24800;DHT22;12897;50.812;4.430;2023-07-13T03:09:01;16.50;99.90
24800;DHT22;12897;50.812;4.430;2023-07-13T03:11:28;16.60;99.90
24800;DHT22;12897;50.812;4.430;2023-07-13T03:13:55;16.60;99.90
24800;DHT22;12897;50.812;4.430;2023-07-13T03:16:21;16.70;99.90
24800;DHT22;12897;50.812;4.430;2023-07-13T03:18:49;16.60;99.90
24800;DHT22;12897;50.812;4.430;2023-07-13T03:21:16;16.50;99.90
24800;DHT22;12897;50.812;4.430;2023-07-13T03:23:43;16.50;99.90
24800;DHT22;12897;50.812;4.430;2023-07-13T03:26:11;16.50;99.90
24800;DHT22;12897;50.812;4.430;2023-07-13T03:28:39;16.50;99.90
24800;DHT22;12897;50.812;4.430;2023-07-13T03:31:08;16.50;99.90
24800;DHT22;12897;50.812;4.430;2023-07-13T03:33:34;16.50;99.90
24800;DHT22;12897;50.812;4.430;2023-07-13T03:36:02;16.50;99.90
24800;DHT22;12897;50.812;4.430;2023-07-13T03:38:29;16.60;99.90
24800;DHT22;12897;50.812;4.430;2023-07-13T03:40:56;16.50;99.90
24800;DHT22;12897;50.812;4.430;2023-07-13T03:43:23;16.40;99.90
24800;DHT22;12897;50.812;4.430;2023-07-13T03:45:49;16.40;99.90
24800;DHT22;12897;50.812;4.430;2023-07-13T03:48:16;16.50;99.90
24800;DHT22;12897;50.812;4.430;2023-07-13T03:50:43;16.50;99.90
24800;DHT22;12897;50.812;4.430;2023-07-13T03:53:10;16.40;99.90
24800;DHT22;12897;50.812;4.430;2023-07-13T03:55:37;16.60;99.90
24800;DHT22;12897;50.812;4.430;2023-07-13T04:00:56;16.80;99.90
24800;DHT22;12897;50.812;4.430;2023-07-13T04:03:23;16.70;99.90
24800;DHT22;12897;50.812;4.430;2023-07-13T04:05:50;16.70;99.90
24800;DHT22;12897;50.812;4.430;2023-07-13T04:08:18;16.70;99.90
24800;DHT22;12897;50.812;4.430;2023-07-13T04:10:45;16.80;99.90
24800;DHT22;12897;50.812;4.430;2023-07-13T04:13:16;16.80;99.90
24800;DHT22;12897;50.812;4.430;2023-07-13T04:15:42;16.90;99.90
24800;DHT22;12897;50.812;4.430;2023-07-13T04:18:09;17.00;99.90
24800;DHT22;12897;50.812;4.430;2023-07-13T04:20:36;17.00;99.90
24800;DHT22;12897;50.812;4.430;2023-07-13T04:23:07;17.00;99.90
24800;DHT22;12897;50.812;4.430;2023-07-13T04:25:35;17.10;99.90
24800;DHT22;12897;50.812;4.430;2023-07-13T04:28:02;17.30;99.90
24800;DHT22;12897;50.812;4.430;2023-07-13T04:30:29;17.30;99.90
24800;DHT22;12897;50.812;4.430;2023-07-13T04:32:57;17.30;99.90
24800;DHT22;12897;50.812;4.430;2023-07-13T04:35:24;17.30;99.90
24800;DHT22;12897;50.812;4.430;2023-07-13T04:37:51;17.30;99.90
24800;DHT22;12897;50.812;4.430;2023-07-13T04:40:19;17.30;99.90
24800;DHT22;12897;50.812;4.430;2023-07-13T04:42:48;17.40;99.90
24800;DHT22;12897;50.812;4.430;2023-07-13T04:45:14;17.50;99.90
24800;DHT22;12897;50.812;4.430;2023-07-13T04:47:42;17.30;99.90
24800;DHT22;12897;50.812;4.430;2023-07-13T04:50:12;17.30;99.90
24800;DHT22;12897;50.812;4.430;2023-07-13T04:52:42;17.40;99.90
24800;DHT22;12897;50.812;4.430;2023-07-13T04:55:10;17.40;99.90
24800;DHT22;12897;50.812;4.430;2023-07-13T04:57:37;17.50;99.90
24800;DHT22;12897;50.812;4.430;2023-07-13T05:00:07;17.40;99.90
24800;DHT22;12897;50.812;4.430;2023-07-13T05:02:33;17.50;99.90
24800;DHT22;12897;50.812;4.430;2023-07-13T05:05:01;17.50;99.90
24800;DHT22;12897;50.812;4.430;2023-07-13T05:07:29;17.50;99.90
24800;DHT22;12897;50.812;4.430;2023-07-13T05:09:58;17.50;99.90
24800;DHT22;12897;50.812;4.430;2023-07-13T05:12:26;17.50;99.90
24800;DHT22;12897;50.812;4.430;2023-07-13T05:14:53;17.40;99.90
24800;DHT22;12897;50.812;4.430;2023-07-13T05:17:25;17.50;99.90
24800;DHT22;12897;50.812;4.430;2023-07-13T05:19:48;17.50;99.90
24800;DHT22;12897;50.812;4.430;2023-07-13T05:22:15;17.40;99.90
24800;DHT22;12897;50.812;4.430;2023-07-13T05:24:44;17.50;99.90
24800;DHT22;12897;50.812;4.430;2023-07-13T05:27:11;17.60;99.90
24800;DHT22;12897;50.812;4.430;2023-07-13T05:29:39;17.70;99.90
24800;DHT22;12897;50.812;4.430;2023-07-13T05:32:06;17.80;99.90
24800;DHT22;12897;50.812;4.430;2023-07-13T05:34:33;17.90;99.90
24800;DHT22;12897;50.812;4.430;2023-07-13T05:37:01;17.90;99.90
24800;DHT22;12897;50.812;4.430;2023-07-13T05:39:28;18.00;99.90
24800;DHT22;12897;50.812;4.430;2023-07-13T05:41:55;18.10;99.90
24800;DHT22;12897;50.812;4.430;2023-07-13T05:44:22;18.20;99.90
24800;DHT22;12897;50.812;4.430;2023-07-13T05:46:49;18.30;99.90
24800;DHT22;12897;50.812;4.430;2023-07-13T05:49:15;18.30;99.90
24800;DHT22;12897;50.812;4.430;2023-07-13T05:51:42;18.40;99.90
24800;DHT22;12897;50.812;4.430;2023-07-13T05:54:09;18.40;99.90
24800;DHT22;12897;50.812;4.430;2023-07-13T05:56:36;18.40;99.90
24800;DHT22;12897;50.812;4.430;2023-07-13T05:59:03;18.30;99.90
24800;DHT22;12897;50.812;4.430;2023-07-13T06:01:32;18.30;99.90
24800;DHT22;12897;50.812;4.430;2023-07-13T06:03:59;18.40;99.90
24800;DHT22;12897;50.812;4.430;2023-07-13T06:06:30;18.50;99.90
24800;DHT22;12897;50.812;4.430;2023-07-13T06:08:54;18.50;99.90
24800;DHT22;12897;50.812;4.430;2023-07-13T06:11:22;18.70;99.90
24800;DHT22;12897;50.812;4.430;2023-07-13T06:14:49;18.60;99.90
24800;DHT22;12897;50.812;4.430;2023-07-13T06:17:17;18.60;99.90
24800;DHT22;12897;50.812;4.430;2023-07-13T06:19:45;18.50;99.90
24800;DHT22;12897;50.812;4.430;2023-07-13T06:22:13;18.50;99.90
24800;DHT22;12897;50.812;4.430;2023-07-13T06:24:41;18.50;99.90
24800;DHT22;12897;50.812;4.430;2023-07-13T06:27:09;18.70;99.90
24800;DHT22;12897;50.812;4.430;2023-07-13T06:29:37;18.60;99.90
24800;DHT22;12897;50.812;4.430;2023-07-13T06:32:06;18.60;99.90
24800;DHT22;12897;50.812;4.430;2023-07-13T06:34:34;18.70;99.90
24800;DHT22;12897;50.812;4.430;2023-07-13T06:37:02;18.80;99.90
24800;DHT22;12897;50.812;4.430;2023-07-13T06:39:29;18.80;99.90
24800;DHT22;12897;50.812;4.430;2023-07-13T06:41:57;18.80;99.90
24800;DHT22;12897;50.812;4.430;2023-07-13T06:44:28;19.00;99.90
24800;DHT22;12897;50.812;4.430;2023-07-13T06:46:54;19.10;99.90
24800;DHT22;12897;50.812;4.430;2023-07-13T06:49:22;19.20;99.90
24800;DHT22;12897;50.812;4.430;2023-07-13T06:51:55;19.30;99.90
24800;DHT22;12897;50.812;4.430;2023-07-13T06:54:23;19.50;99.90
24800;DHT22;12897;50.812;4.430;2023-07-13T06:56:51;19.40;99.90
24800;DHT22;12897;50.812;4.430;2023-07-13T06:59:19;19.50;99.90
24800;DHT22;12897;50.812;4.430;2023-07-13T07:01:46;19.50;99.90
24800;DHT22;12897;50.812;4.430;2023-07-13T07:04:14;19.70;99.90
24800;DHT22;12897;50.812;4.430;2023-07-13T07:06:41;19.90;99.90
24800;DHT22;12897;50.812;4.430;2023-07-13T07:09:09;20.10;99.90
24800;DHT22;12897;50.812;4.430;2023-07-13T07:11:37;20.10;99.90
24800;DHT22;12897;50.812;4.430;2023-07-13T07:14:04;20.00;99.90
24800;DHT22;12897;50.812;4.430;2023-07-13T07:16:32;20.20;99.90
24800;DHT22;12897;50.812;4.430;2023-07-13T07:19:01;20.30;99.90
24800;DHT22;12897;50.812;4.430;2023-07-13T07:21:29;20.40;99.90
24800;DHT22;12897;50.812;4.430;2023-07-13T07:23:58;20.50;99.90
24800;DHT22;12897;50.812;4.430;2023-07-13T07:26:26;20.50;99.90
24800;DHT22;12897;50.812;4.430;2023-07-13T07:28:54;20.50;99.90
24800;DHT22;12897;50.812;4.430;2023-07-13T07:31:22;20.50;99.90
24800;DHT22;12897;50.812;4.430;2023-07-13T07:33:49;20.50;99.90
24800;DHT22;12897;50.812;4.430;2023-07-13T07:36:17;20.60;99.90
24800;DHT22;12897;50.812;4.430;2023-07-13T07:38:45;20.90;99.90
24800;DHT22;12897;50.812;4.430;2023-07-13T07:41:15;20.90;99.90
24800;DHT22;12897;50.812;4.430;2023-07-13T07:43:43;20.60;99.90
24800;DHT22;12897;50.812;4.430;2023-07-13T07:46:10;20.50;99.90
24800;DHT22;12897;50.812;4.430;2023-07-13T07:48:38;20.50;99.90
24800;DHT22;12897;50.812;4.430;2023-07-13T07:51:05;20.40;99.90
24800;DHT22;12897;50.812;4.430;2023-07-13T07:53:34;20.30;99.90
24800;DHT22;12897;50.812;4.430;2023-07-13T07:56:01;20.30;99.90
24800;DHT22;12897;50.812;4.430;2023-07-13T07:58:29;20.60;99.90
24800;DHT22;12897;50.812;4.430;2023-07-13T08:01:07;20.80;99.90
24800;DHT22;12897;50.812;4.430;2023-07-13T08:03:35;21.10;99.90
24800;DHT22;12897;50.812;4.430;2023-07-13T08:06:03;21.00;99.90
24800;DHT22;12897;50.812;4.430;2023-07-13T08:08:30;21.00;99.90
24800;DHT22;12897;50.812;4.430;2023-07-13T08:10:58;21.20;99.90
24800;DHT22;12897;50.812;4.430;2023-07-13T08:13:27;21.10;99.90
24800;DHT22;12897;50.812;4.430;2023-07-13T08:15:55;21.30;99.90
24800;DHT22;12897;50.812;4.430;2023-07-13T08:18:23;21.00;99.90
24800;DHT22;12897;50.812;4.430;2023-07-13T08:20:50;20.70;99.90
24800;DHT22;12897;50.812;4.430;2023-07-13T08:23:18;20.60;99.90
24800;DHT22;12897;50.812;4.430;2023-07-13T08:25:53;20.60;99.90
24800;DHT22;12897;50.812;4.430;2023-07-13T08:28:22;20.80;99.90
24800;DHT22;12897;50.812;4.430;2023-07-13T08:30:51;21.10;99.90
24800;DHT22;12897;50.812;4.430;2023-07-13T08:33:21;21.20;99.90
24800;DHT22;12897;50.812;4.430;2023-07-13T08:35:53;21.40;99.90
24800;DHT22;12897;50.812;4.430;2023-07-13T08:38:20;21.50;99.90
24800;DHT22;12897;50.812;4.430;2023-07-13T08:40:56;21.30;99.90
24800;DHT22;12897;50.812;4.430;2023-07-13T08:43:26;21.40;99.90
24800;DHT22;12897;50.812;4.430;2023-07-13T08:45:59;21.60;99.90
24800;DHT22;12897;50.812;4.430;2023-07-13T08:48:26;21.50;99.90
24800;DHT22;12897;50.812;4.430;2023-07-13T08:53:54;21.60;99.90
24800;DHT22;12897;50.812;4.430;2023-07-13T08:56:29;21.70;99.90
24800;DHT22;12897;50.812;4.430;2023-07-13T08:58:58;21.90;99.90
24800;DHT22;12897;50.812;4.430;2023-07-13T09:04:25;21.90;99.90
24800;DHT22;12897;50.812;4.430;2023-07-13T09:14:53;21.60;99.90
24800;DHT22;12897;50.812;4.430;2023-07-13T09:17:28;21.60;99.90
24800;DHT22;12897;50.812;4.430;2023-07-13T09:19:58;21.70;99.90
24800;DHT22;12897;50.812;4.430;2023-07-13T09:22:27;21.90;99.90
24800;DHT22;12897;50.812;4.430;2023-07-13T09:25:02;21.70;99.90
24800;DHT22;12897;50.812;4.430;2023-07-13T09:27:35;21.50;99.90
24800;DHT22;12897;50.812;4.430;2023-07-13T09:30:16;21.50;99.90
24800;DHT22;12897;50.812;4.430;2023-07-13T09:32:33;21.50;99.90
24800;DHT22;12897;50.812;4.430;2023-07-13T09:35:01;21.90;99.90
24800;DHT22;12897;50.812;4.430;2023-07-13T09:37:38;22.20;99.90
24800;DHT22;12897;50.812;4.430;2023-07-13T09:40:02;22.20;99.90
24800;DHT22;12897;50.812;4.430;2023-07-13T09:42:31;22.20;99.90
24800;DHT22;12897;50.812;4.430;2023-07-13T09:45:01;22.20;99.90
24800;DHT22;12897;50.812;4.430;2023-07-13T09:47:32;22.40;99.90
24800;DHT22;12897;50.812;4.430;2023-07-13T09:50:04;22.30;99.90
24800;DHT22;12897;50.812;4.430;2023-07-13T09:52:45;22.40;99.90
24800;DHT22;12897;50.812;4.430;2023-07-13T09:55:37;22.60;99.90
24800;DHT22;12897;50.812;4.430;2023-07-13T09:58:09;22.50;99.90
24800;DHT22;12897;50.812;4.430;2023-07-13T10:00:38;22.30;99.90
24800;DHT22;12897;50.812;4.430;2023-07-13T10:03:14;22.40;99.90
24800;DHT22;12897;50.812;4.430;2023-07-13T10:05:40;22.40;99.90
24800;DHT22;12897;50.812;4.430;2023-07-13T10:08:31;22.50;99.90
24800;DHT22;12897;50.812;4.430;2023-07-13T10:10:38;22.60;99.90
24800;DHT22;12897;50.812;4.430;2023-07-13T10:13:28;22.90;99.90
24800;DHT22;12897;50.812;4.430;2023-07-13T10:15:58;22.60;99.90
24800;DHT22;12897;50.812;4.430;2023-07-13T10:18:25;22.50;99.90
24800;DHT22;12897;50.812;4.430;2023-07-13T10:21:08;22.40;99.90
24800;DHT22;12897;50.812;4.430;2023-07-13T10:23:31;22.40;99.90
24800;DHT22;12897;50.812;4.430;2023-07-13T10:26:01;22.50;99.90
24800;DHT22;12897;50.812;4.430;2023-07-13T10:28:35;22.80;99.90
24800;DHT22;12897;50.812;4.430;2023-07-13T10:31:04;22.70;99.90
24800;DHT22;12897;50.812;4.430;2023-07-13T10:33:32;22.90;99.90
24800;DHT22;12897;50.812;4.430;2023-07-13T10:36:23;22.70;99.90
24800;DHT22;12897;50.812;4.430;2023-07-13T10:38:53;22.80;99.90
24800;DHT22;12897;50.812;4.430;2023-07-13T10:41:26;22.80;99.90
24800;DHT22;12897;50.812;4.430;2023-07-13T10:43:59;23.20;99.90
24800;DHT22;12897;50.812;4.430;2023-07-13T10:46:28;23.20;99.90
24800;DHT22;12897;50.812;4.430;2023-07-13T10:49:04;23.30;99.90
24800;DHT22;12897;50.812;4.430;2023-07-13T10:51:35;23.60;99.90
24800;DHT22;12897;50.812;4.430;2023-07-13T10:59:36;23.50;99.90
24800;DHT22;12897;50.812;4.430;2023-07-13T11:02:09;23.40;99.90
24800;DHT22;12897;50.812;4.430;2023-07-13T11:04:45;23.60;99.90
24800;DHT22;12897;50.812;4.430;2023-07-13T11:07:28;23.60;99.90
24800;DHT22;12897;50.812;4.430;2023-07-13T11:10:09;23.20;99.90
24800;DHT22;12897;50.812;4.430;2023-07-13T11:12:51;23.30;99.90
24800;DHT22;12897;50.812;4.430;2023-07-13T11:15:43;23.60;99.90
24800;DHT22;12897;50.812;4.430;2023-07-13T11:18:11;23.70;99.90
24800;DHT22;12897;50.812;4.430;2023-07-13T11:20:37;23.60;99.90
24800;DHT22;12897;50.812;4.430;2023-07-13T11:25:45;23.50;99.90
24800;DHT22;12897;50.812;4.430;2023-07-13T11:28:25;23.70;99.90
24800;DHT22;12897;50.812;4.430;2023-07-13T11:31:02;23.70;99.90
24800;DHT22;12897;50.812;4.430;2023-07-13T11:33:50;23.70;99.90
24800;DHT22;12897;50.812;4.430;2023-07-13T11:36:23;23.80;99.90
24800;DHT22;12897;50.812;4.430;2023-07-13T11:39:05;24.10;99.90
24800;DHT22;12897;50.812;4.430;2023-07-13T11:41:44;23.90;99.90
24800;DHT22;12897;50.812;4.430;2023-07-13T11:44:20;23.70;99.90
24800;DHT22;12897;50.812;4.430;2023-07-13T11:46:52;23.60;99.90
24800;DHT22;12897;50.812;4.430;2023-07-13T11:49:28;23.70;99.90
24800;DHT22;12897;50.812;4.430;2023-07-13T11:51:55;23.60;99.90
24800;DHT22;12897;50.812;4.430;2023-07-13T11:54:28;23.50;99.90
24800;DHT22;12897;50.812;4.430;2023-07-13T11:57:10;23.50;99.90
24800;DHT22;12897;50.812;4.430;2023-07-13T11:59:38;23.50;99.90
24800;DHT22;12897;50.812;4.430;2023-07-13T12:02:16;23.30;99.90
24800;DHT22;12897;50.812;4.430;2023-07-13T12:04:43;23.20;99.90
24800;DHT22;12897;50.812;4.430;2023-07-13T12:07:16;23.10;99.90
24800;DHT22;12897;50.812;4.430;2023-07-13T12:09:49;23.00;99.90
24800;DHT22;12897;50.812;4.430;2023-07-13T12:12:21;22.60;99.90
24800;DHT22;12897;50.812;4.430;2023-07-13T12:14:53;22.90;99.90
24800;DHT22;12897;50.812;4.430;2023-07-13T12:17:23;23.20;99.90
24800;DHT22;12897;50.812;4.430;2023-07-13T12:19:56;23.30;99.90
24800;DHT22;12897;50.812;4.430;2023-07-13T12:22:22;23.30;99.90
24800;DHT22;12897;50.812;4.430;2023-07-13T12:24:51;23.10;99.90
24800;DHT22;12897;50.812;4.430;2023-07-13T12:27:24;23.40;99.90
24800;DHT22;12897;50.812;4.430;2023-07-13T12:30:00;23.70;99.90
24800;DHT22;12897;50.812;4.430;2023-07-13T12:32:28;23.70;99.90
24800;DHT22;12897;50.812;4.430;2023-07-13T12:35:15;23.90;99.90
24800;DHT22;12897;50.812;4.430;2023-07-13T12:37:45;23.80;99.90
24800;DHT22;12897;50.812;4.430;2023-07-13T12:40:21;23.30;99.90
24800;DHT22;12897;50.812;4.430;2023-07-13T12:42:52;22.80;99.90
24800;DHT22;12897;50.812;4.430;2023-07-13T12:45:27;22.50;99.90
24800;DHT22;12897;50.812;4.430;2023-07-13T12:47:58;22.10;99.90
24800;DHT22;12897;50.812;4.430;2023-07-13T12:50:37;22.10;99.90
24800;DHT22;12897;50.812;4.430;2023-07-13T12:53:05;22.00;99.90
24800;DHT22;12897;50.812;4.430;2023-07-13T12:55:47;21.40;99.90
24800;DHT22;12897;50.812;4.430;2023-07-13T12:58:27;20.90;99.90
24800;DHT22;12897;50.812;4.430;2023-07-13T13:00:58;20.50;99.90
24800;DHT22;12897;50.812;4.430;2023-07-13T13:06:28;19.90;99.90
24800;DHT22;12897;50.812;4.430;2023-07-13T13:08:35;19.90;99.90
24800;DHT22;12897;50.812;4.430;2023-07-13T13:11:03;20.10;99.90
24800;DHT22;12897;50.812;4.430;2023-07-13T13:13:31;20.20;99.90
24800;DHT22;12897;50.812;4.430;2023-07-13T13:18:32;20.50;99.90
24800;DHT22;12897;50.812;4.430;2023-07-13T13:21:01;20.90;99.90
24800;DHT22;12897;50.812;4.430;2023-07-13T13:23:29;21.20;99.90
24800;DHT22;12897;50.812;4.430;2023-07-13T13:25:57;21.30;99.90
24800;DHT22;12897;50.812;4.430;2023-07-13T13:28:25;21.60;99.90
24800;DHT22;12897;50.812;4.430;2023-07-13T13:30:53;21.90;99.90
24800;DHT22;12897;50.812;4.430;2023-07-13T13:33:24;22.10;99.90
24800;DHT22;12897;50.812;4.430;2023-07-13T13:35:55;22.40;99.90
24800;DHT22;12897;50.812;4.430;2023-07-13T13:38:26;22.40;99.90
24800;DHT22;12897;50.812;4.430;2023-07-13T13:40:54;22.60;99.90
24800;DHT22;12897;50.812;4.430;2023-07-13T13:43:26;22.80;99.90
24800;DHT22;12897;50.812;4.430;2023-07-13T13:45:57;23.00;99.90
24800;DHT22;12897;50.812;4.430;2023-07-13T13:48:35;23.20;99.90
24800;DHT22;12897;50.812;4.430;2023-07-13T13:51:12;23.10;99.90
24800;DHT22;12897;50.812;4.430;2023-07-13T13:53:37;23.10;99.90
24800;DHT22;12897;50.812;4.430;2023-07-13T13:56:08;23.10;99.90
24800;DHT22;12897;50.812;4.430;2023-07-13T13:58:36;23.20;99.90
24800;DHT22;12897;50.812;4.430;2023-07-13T14:01:04;23.20;99.90
24800;DHT22;12897;50.812;4.430;2023-07-13T14:03:36;23.20;99.90
24800;DHT22;12897;50.812;4.430;2023-07-13T14:06:04;23.40;99.90
24800;DHT22;12897;50.812;4.430;2023-07-13T14:08:31;23.50;99.90
24800;DHT22;12897;50.812;4.430;2023-07-13T14:10:59;23.50;99.90
24800;DHT22;12897;50.812;4.430;2023-07-13T14:13:39;23.60;99.90
24800;DHT22;12897;50.812;4.430;2023-07-13T14:16:05;23.60;99.90
24800;DHT22;12897;50.812;4.430;2023-07-13T14:18:34;23.60;99.90
24800;DHT22;12897;50.812;4.430;2023-07-13T14:21:02;23.90;99.90
24800;DHT22;12897;50.812;4.430;2023-07-13T14:23:30;24.20;99.90
24800;DHT22;12897;50.812;4.430;2023-07-13T14:25:59;23.90;99.90
24800;DHT22;12897;50.812;4.430;2023-07-13T14:28:28;23.80;99.90
24800;DHT22;12897;50.812;4.430;2023-07-13T14:30:56;23.80;99.90
24800;DHT22;12897;50.812;4.430;2023-07-13T14:33:26;23.40;99.90
24800;DHT22;12897;50.812;4.430;2023-07-13T14:35:59;23.20;99.90
24800;DHT22;12897;50.812;4.430;2023-07-13T14:38:31;23.00;99.90
24800;DHT22;12897;50.812;4.430;2023-07-13T14:41:01;23.20;99.90
24800;DHT22;12897;50.812;4.430;2023-07-13T14:43:28;23.00;99.90
24800;DHT22;12897;50.812;4.430;2023-07-13T14:45:56;22.80;99.90
24800;DHT22;12897;50.812;4.430;2023-07-13T14:48:24;22.80;99.90
24800;DHT22;12897;50.812;4.430;2023-07-13T14:50:57;23.00;99.90
24800;DHT22;12897;50.812;4.430;2023-07-13T14:53:26;23.40;99.90
24800;DHT22;12897;50.812;4.430;2023-07-13T14:55:55;23.50;99.90
24800;DHT22;12897;50.812;4.430;2023-07-13T14:58:48;23.60;99.90
24800;DHT22;12897;50.812;4.430;2023-07-13T15:00:58;23.70;99.90
24800;DHT22;12897;50.812;4.430;2023-07-13T15:03:26;23.90;99.90
24800;DHT22;12897;50.812;4.430;2023-07-13T15:05:55;23.80;99.90
24800;DHT22;12897;50.812;4.430;2023-07-13T15:08:24;23.80;99.90
24800;DHT22;12897;50.812;4.430;2023-07-13T15:10:56;24.00;99.90
24800;DHT22;12897;50.812;4.430;2023-07-13T15:13:28;24.20;99.90
24800;DHT22;12897;50.812;4.430;2023-07-13T15:16:08;24.40;99.90
24800;DHT22;12897;50.812;4.430;2023-07-13T15:18:32;24.40;99.90
24800;DHT22;12897;50.812;4.430;2023-07-13T15:21:03;24.50;99.90
24800;DHT22;12897;50.812;4.430;2023-07-13T15:23:32;24.50;99.90
24800;DHT22;12897;50.812;4.430;2023-07-13T15:26:04;24.70;99.90
24800;DHT22;12897;50.812;4.430;2023-07-13T15:28:32;24.80;99.90
24800;DHT22;12897;50.812;4.430;2023-07-13T15:33:49;24.50;99.90
24800;DHT22;12897;50.812;4.430;2023-07-13T15:36:20;24.30;99.90
24800;DHT22;12897;50.812;4.430;2023-07-13T15:38:53;24.20;99.90
24800;DHT22;12897;50.812;4.430;2023-07-13T15:41:26;24.10;99.90
24800;DHT22;12897;50.812;4.430;2023-07-13T15:43:56;24.30;99.90
24800;DHT22;12897;50.812;4.430;2023-07-13T15:46:29;24.50;99.90
24800;DHT22;12897;50.812;4.430;2023-07-13T15:48:58;24.30;99.90
24800;DHT22;12897;50.812;4.430;2023-07-13T15:51:30;24.30;99.90
24800;DHT22;12897;50.812;4.430;2023-07-13T15:54:03;24.10;99.90
24800;DHT22;12897;50.812;4.430;2023-07-13T15:56:36;23.90;99.90
24800;DHT22;12897;50.812;4.430;2023-07-13T15:59:09;24.00;99.90
24800;DHT22;12897;50.812;4.430;2023-07-13T16:01:39;23.90;99.90
24800;DHT22;12897;50.812;4.430;2023-07-13T16:04:08;24.10;99.90
24800;DHT22;12897;50.812;4.430;2023-07-13T16:06:37;24.10;99.90
24800;DHT22;12897;50.812;4.430;2023-07-13T16:09:18;24.10;99.90
24800;DHT22;12897;50.812;4.430;2023-07-13T16:11:47;24.20;99.90
24800;DHT22;12897;50.812;4.430;2023-07-13T16:14:14;24.10;99.90
24800;DHT22;12897;50.812;4.430;2023-07-13T16:16:45;24.10;99.90
24800;DHT22;12897;50.812;4.430;2023-07-13T16:19:16;23.90;99.90
24800;DHT22;12897;50.812;4.430;2023-07-13T16:21:44;24.00;99.90